メインページ
METAR-TAF:

METAR-TAF

空港 :

ニアメ, ニジェール

ディオリ・アマニ国際空港

緯度: 13-29N, 経度: 002-10E, 海抜: 223m

現時点の気象観測

当レポートは1時間2分前の11:00(UTC)に作成
南西の風 10kt、から西の間で変化する
気温 39°C
湿度 23%
気圧 1010 hPa
視程: 7000m
高度4600ftの雲はほとんどない

METAR: DRRN 231100Z 23010KT 190V280 7000 FEW046 39/14 Q1010 NOSIG

時間: 13:02 (12:02 UTC)

予報

当レポートは1時間2分前の11:00(UTC)に作成
予報は23日の 12時(UTC)から 24日の 18時(UTC)まで有効
南/南西の風 8kt
視程: 8000m
確率 30% :
23日の 15時(UTC)から 23日の 20時(UTC)まで一時的に
視程: 4000m
高度5000ftの雲はほとんどない, 積乱雲.
広範な塵, 激しい雷雨
24日の 08時(UTC)から 24日の 12時(UTC)まで一時的に
の風 18kt
視程: 4500m
風塵

TAF: DRRN 231100Z 2312/2418 21008KT 8000 NSC PROB30 TEMPO 2315/2320 4000 DU TS FEW050CB TEMPO 2408/2412 18018KT 4500 BLDU

4,000以上の空港の気象観測と天気予報(METAR報とTAF報)

利用可能な観測所は地図上に黄色い丸と赤い丸で示す。

丸の上にカーソルを重ねると観測所名を参照できる。

次にクリックすると気象観測と天気予報を参照できる。

マップの切り替え:黒色「×」印の緑ボタンをクリックして拡大、「-」印の緑ボタンをクリックして縮小、緑色の三角印をクリックして隣りの地図に切り替え


METAR-TAF: